createdAt,value
2022-07-26T00:01:45.183Z,22.85
2022-07-26T00:04:19.836Z,22.63
2022-07-26T00:07:03.566Z,22.76
2022-07-26T00:09:34.519Z,22.43
2022-07-26T00:12:06.421Z,22.56
2022-07-26T00:14:38.243Z,22.84
2022-07-26T00:17:11.213Z,22.80
2022-07-26T00:19:42.653Z,22.90
2022-07-26T00:22:27.313Z,22.52
2022-07-26T00:24:58.719Z,22.48
2022-07-26T00:27:30.238Z,22.65
2022-07-26T00:30:01.379Z,22.79
2022-07-26T00:32:33.063Z,22.90
2022-07-26T00:35:04.509Z,22.57
2022-07-26T00:37:35.926Z,22.53
2022-07-26T00:40:07.895Z,22.56
2022-07-26T00:42:40.432Z,22.62
2022-07-26T00:45:13.564Z,22.58
2022-07-26T00:47:45.337Z,22.63
2022-07-26T00:50:18.627Z,22.85
2022-07-26T00:52:51.178Z,22.72
2022-07-26T00:55:22.336Z,22.71
2022-07-26T00:57:53.750Z,22.65
2022-07-26T01:00:30.069Z,22.53
2022-07-26T01:03:01.349Z,22.68
2022-07-26T01:05:33.310Z,22.46
2022-07-26T01:08:05.111Z,22.28
2022-07-26T01:10:38.001Z,22.13
2022-07-26T01:13:08.940Z,22.13
2022-07-26T01:15:41.824Z,21.97
2022-07-26T01:18:12.880Z,22.09
2022-07-26T01:20:45.395Z,21.91
2022-07-26T01:23:16.610Z,21.96
2022-07-26T01:25:48.590Z,22.00
2022-07-26T01:28:20.481Z,21.82
2022-07-26T01:30:52.275Z,22.21
2022-07-26T01:33:23.612Z,21.97
2022-07-26T01:35:54.659Z,22.03
2022-07-26T01:38:26.374Z,22.18
2022-07-26T01:40:57.474Z,22.36
2022-07-26T01:43:28.555Z,22.35
2022-07-26T01:46:00.247Z,22.29
2022-07-26T01:48:32.007Z,22.35
2022-07-26T01:51:03.902Z,22.47
2022-07-26T01:53:35.018Z,22.39
2022-07-26T01:56:06.424Z,22.30
2022-07-26T01:58:37.567Z,22.31
2022-07-26T02:01:09.629Z,22.48
2022-07-26T02:03:42.388Z,22.56
2022-07-26T02:06:13.555Z,22.58
2022-07-26T02:08:46.182Z,22.46
2022-07-26T02:11:18.091Z,22.49
2022-07-26T02:13:53.140Z,22.29
2022-07-26T02:16:23.718Z,22.47
2022-07-26T02:18:55.393Z,22.61
2022-07-26T02:21:26.422Z,22.66
2022-07-26T02:23:57.506Z,22.64
2022-07-26T02:26:28.667Z,22.60
2022-07-26T02:28:59.947Z,22.55
2022-07-26T02:31:32.242Z,22.47
2022-07-26T02:34:03.520Z,22.50
2022-07-26T02:36:34.850Z,22.63
2022-07-26T02:39:07.948Z,22.33
2022-07-26T02:41:39.004Z,22.23
2022-07-26T02:44:11.535Z,22.20
2022-07-26T02:46:43.039Z,21.86
2022-07-26T02:49:14.496Z,21.33
2022-07-26T02:51:45.638Z,21.48
2022-07-26T02:54:17.022Z,21.85
2022-07-26T02:56:48.063Z,21.93
2022-07-26T02:59:22.026Z,21.74
2022-07-26T03:01:53.083Z,21.62
2022-07-26T03:04:24.263Z,21.67
2022-07-26T03:06:55.303Z,21.76
2022-07-26T03:09:26.459Z,21.97
2022-07-26T03:11:57.946Z,21.92
2022-07-26T03:14:30.360Z,21.77
2022-07-26T03:17:02.909Z,21.67
2022-07-26T03:19:33.861Z,21.63
2022-07-26T03:22:05.033Z,21.36
2022-07-26T03:24:36.510Z,21.78
2022-07-26T03:27:07.576Z,21.96
2022-07-26T03:29:38.776Z,21.62
2022-07-26T03:32:10.511Z,21.72
2022-07-26T03:34:41.565Z,21.86
2022-07-26T03:37:13.038Z,21.78
2022-07-26T03:39:43.969Z,21.57
2022-07-26T03:42:15.153Z,21.82
2022-07-26T03:44:45.994Z,21.88
2022-07-26T03:47:16.974Z,21.58
2022-07-26T03:49:48.105Z,20.52
2022-07-26T03:52:19.666Z,20.34
2022-07-26T03:54:50.736Z,19.98
2022-07-26T03:57:21.751Z,19.71
2022-07-26T03:59:52.793Z,19.83
2022-07-26T04:02:25.640Z,20.14
2022-07-26T04:04:56.730Z,19.99
2022-07-26T04:07:27.944Z,20.15
2022-07-26T04:09:58.994Z,20.32
2022-07-26T04:12:30.299Z,20.33
2022-07-26T04:15:01.450Z,20.15
2022-07-26T04:17:34.956Z,19.92
2022-07-26T04:20:07.444Z,20.00
2022-07-26T04:22:39.659Z,20.03
2022-07-26T04:25:12.143Z,20.06
2022-07-26T04:27:43.104Z,20.40
2022-07-26T04:30:15.752Z,20.42
2022-07-26T04:32:48.040Z,20.25
2022-07-26T04:35:19.408Z,20.23
2022-07-26T04:37:50.587Z,20.36
2022-07-26T04:40:24.039Z,20.23
2022-07-26T04:42:55.083Z,20.28
2022-07-26T04:45:26.437Z,20.25
2022-07-26T04:47:57.554Z,20.25
2022-07-26T04:50:28.879Z,20.33
2022-07-26T04:53:00.117Z,20.51
2022-07-26T04:55:31.624Z,20.13
2022-07-26T04:58:02.769Z,20.32
2022-07-26T05:00:35.088Z,20.35
2022-07-26T05:03:07.088Z,20.43
2022-07-26T05:05:38.247Z,20.36
2022-07-26T05:08:09.355Z,20.48
2022-07-26T05:10:40.910Z,20.66
2022-07-26T05:13:12.137Z,20.68
2022-07-26T05:15:44.106Z,20.86
2022-07-26T05:18:16.102Z,20.73
2022-07-26T05:20:47.290Z,20.73
2022-07-26T05:23:20.022Z,20.94
2022-07-26T05:25:51.682Z,20.74
2022-07-26T05:28:24.582Z,20.78
2022-07-26T05:30:56.062Z,20.80
2022-07-26T05:33:28.944Z,20.94
2022-07-26T05:36:00.429Z,20.81
2022-07-26T05:38:31.688Z,21.02
2022-07-26T05:41:03.146Z,21.06
2022-07-26T05:43:40.830Z,20.83
2022-07-26T05:46:09.759Z,21.24
2022-07-26T05:48:44.061Z,21.04
2022-07-26T05:51:16.074Z,21.15
2022-07-26T05:53:47.506Z,21.27
2022-07-26T05:56:18.480Z,21.17
2022-07-26T05:58:49.550Z,21.15
2022-07-26T06:01:20.556Z,20.80
2022-07-26T06:03:51.643Z,20.61
2022-07-26T06:06:24.036Z,21.00
2022-07-26T06:08:56.536Z,21.04
2022-07-26T06:11:27.499Z,21.06
2022-07-26T06:13:58.665Z,20.86
2022-07-26T06:16:29.831Z,20.74
2022-07-26T06:19:01.073Z,20.72
2022-07-26T06:21:33.366Z,20.87
2022-07-26T06:24:04.537Z,21.12
2022-07-26T06:26:35.623Z,21.37
2022-07-26T06:29:07.164Z,21.38
2022-07-26T06:31:38.327Z,21.15
2022-07-26T06:34:10.079Z,21.08
2022-07-26T06:36:41.580Z,20.97
2022-07-26T06:39:12.815Z,21.11
2022-07-26T06:41:43.777Z,21.24
2022-07-26T06:44:16.647Z,21.16
2022-07-26T06:46:47.677Z,21.13
2022-07-26T06:49:22.475Z,20.89
2022-07-26T06:51:51.518Z,21.04
2022-07-26T06:54:23.683Z,20.93
2022-07-26T06:56:54.514Z,20.94
2022-07-26T06:59:25.787Z,20.71
2022-07-26T07:02:00.803Z,20.45
2022-07-26T07:04:33.315Z,20.44
2022-07-26T07:07:06.659Z,20.28
2022-07-26T07:09:39.147Z,20.65
2022-07-26T07:12:10.971Z,20.66
2022-07-26T07:14:42.462Z,20.51
2022-07-26T07:17:18.457Z,20.29
2022-07-26T07:19:46.220Z,20.47
2022-07-26T07:22:18.172Z,20.19
2022-07-26T07:24:49.669Z,20.53
2022-07-26T07:27:20.896Z,20.58
2022-07-26T07:29:55.709Z,20.46
2022-07-26T07:32:27.210Z,20.51
2022-07-26T07:34:59.713Z,20.66
2022-07-26T07:37:52.942Z,20.49
2022-07-26T07:40:04.953Z,20.31
2022-07-26T07:42:36.439Z,20.61
2022-07-26T07:45:09.820Z,20.79
2022-07-26T07:47:42.711Z,20.48
2022-07-26T07:50:14.032Z,20.88
2022-07-26T07:52:45.359Z,20.73
2022-07-26T07:55:36.609Z,20.79
2022-07-26T07:57:50.205Z,21.05
2022-07-26T08:00:27.052Z,21.20
2022-07-26T08:02:55.498Z,20.17
2022-07-26T08:05:27.209Z,21.13
2022-07-26T08:07:58.422Z,20.85
2022-07-26T08:10:29.826Z,20.99
2022-07-26T08:13:03.317Z,20.43
2022-07-26T08:15:34.668Z,20.41
2022-07-26T08:18:08.736Z,20.36
2022-07-26T08:20:39.847Z,20.12
2022-07-26T08:23:11.934Z,20.29
2022-07-26T08:25:55.602Z,19.95
2022-07-26T08:28:37.604Z,19.95
2022-07-26T08:30:57.811Z,20.40
2022-07-26T08:33:30.357Z,20.04
2022-07-26T08:36:12.243Z,20.34
2022-07-26T08:38:48.124Z,20.06
2022-07-26T08:41:24.812Z,20.34
2022-07-26T08:43:55.888Z,20.41
2022-07-26T08:46:32.748Z,20.27
2022-07-26T08:49:04.391Z,20.47
2022-07-26T08:51:38.732Z,20.56
2022-07-26T08:54:12.064Z,20.97
2022-07-26T08:56:55.108Z,21.01
2022-07-26T08:59:30.995Z,21.25
2022-07-26T09:02:08.215Z,21.83
2022-07-26T09:04:49.919Z,21.37
2022-07-26T09:07:21.693Z,21.88
2022-07-26T09:10:08.612Z,21.28
2022-07-26T09:12:44.461Z,21.55
2022-07-26T09:15:24.994Z,21.86
2022-07-26T09:17:58.925Z,21.89
2022-07-26T09:20:32.463Z,22.16
2022-07-26T09:23:08.896Z,21.96
2022-07-26T09:25:42.928Z,21.98
2022-07-26T09:28:29.943Z,21.67
2022-07-26T09:31:05.970Z,21.95
2022-07-26T09:33:47.826Z,22.27
2022-07-26T09:36:22.219Z,22.33
2022-07-26T09:38:58.440Z,22.87
2022-07-26T09:41:32.433Z,22.51
2022-07-26T09:44:06.378Z,22.32
2022-07-26T09:46:40.695Z,22.63
2022-07-26T09:49:23.139Z,22.31
2022-07-26T09:51:56.068Z,22.48
2022-07-26T09:54:37.527Z,22.42
2022-07-26T09:57:12.195Z,22.47
2022-07-26T09:59:43.600Z,23.09
2022-07-26T10:02:15.707Z,23.00
2022-07-26T10:04:49.887Z,22.81
2022-07-26T10:07:21.425Z,22.95
2022-07-26T10:09:58.381Z,22.75
2022-07-26T10:12:32.144Z,22.94
2022-07-26T10:15:03.444Z,23.20
2022-07-26T10:17:43.283Z,23.03
2022-07-26T10:20:24.424Z,23.12
2022-07-26T10:22:54.357Z,23.17
2022-07-26T10:25:28.759Z,23.28
2022-07-26T10:28:00.346Z,22.94
2022-07-26T10:30:34.981Z,23.39
2022-07-26T10:33:11.634Z,23.43
2022-07-26T10:35:45.324Z,23.47
2022-07-26T10:38:27.452Z,23.33
2022-07-26T10:41:04.091Z,23.30
2022-07-26T10:43:40.960Z,23.35
2022-07-26T10:46:17.280Z,23.49
2022-07-26T10:49:05.340Z,23.65
2022-07-26T10:51:42.724Z,23.64
2022-07-26T10:54:16.168Z,23.52
2022-07-26T10:56:47.595Z,22.99
2022-07-26T10:59:45.795Z,23.50
2022-07-26T11:01:56.574Z,23.55
2022-07-26T11:04:29.206Z,23.21
2022-07-26T11:07:02.819Z,23.27
2022-07-26T11:09:38.910Z,23.71
2022-07-26T11:12:20.341Z,23.67
2022-07-26T11:14:53.711Z,23.46
2022-07-26T11:17:27.352Z,23.15
2022-07-26T11:19:59.382Z,23.52
2022-07-26T11:22:34.632Z,23.54
2022-07-26T11:25:05.742Z,23.70
2022-07-26T11:27:36.857Z,23.92
2022-07-26T11:30:09.493Z,23.41
2022-07-26T11:32:41.376Z,23.51
2022-07-26T11:35:14.442Z,23.70
2022-07-26T11:38:07.817Z,23.66
2022-07-26T11:40:48.645Z,23.75
2022-07-26T11:43:24.476Z,23.44
2022-07-26T11:46:01.709Z,23.94
